sensor_id;sensor_type;location;lat;lon;timestamp;P1;durP1;ratioP1;P2;durP2;ratioP2
13706;SDS011;6925;47.816;13.072;2022-11-20T00:01:44;6.03;;;2.85;;
13706;SDS011;6925;47.816;13.072;2022-11-20T00:04:12;5.85;;;3.33;;
13706;SDS011;6925;47.816;13.072;2022-11-20T00:06:39;6.00;;;3.28;;
13706;SDS011;6925;47.816;13.072;2022-11-20T00:09:06;6.57;;;3.30;;
13706;SDS011;6925;47.816;13.072;2022-11-20T00:11:36;5.10;;;2.55;;
13706;SDS011;6925;47.816;13.072;2022-11-20T00:14:03;6.63;;;3.00;;
13706;SDS011;6925;47.816;13.072;2022-11-20T00:16:31;3.40;;;2.10;;
13706;SDS011;6925;47.816;13.072;2022-11-20T00:19:01;3.60;;;1.73;;
13706;SDS011;6925;47.816;13.072;2022-11-20T00:21:28;4.63;;;1.60;;
13706;SDS011;6925;47.816;13.072;2022-11-20T00:23:56;3.42;;;1.90;;
13706;SDS011;6925;47.816;13.072;2022-11-20T00:26:24;3.47;;;1.75;;
13706;SDS011;6925;47.816;13.072;2022-11-20T00:28:53;4.07;;;1.95;;
13706;SDS011;6925;47.816;13.072;2022-11-20T00:31:21;4.35;;;2.10;;
13706;SDS011;6925;47.816;13.072;2022-11-20T00:33:48;5.82;;;3.03;;
13706;SDS011;6925;47.816;13.072;2022-11-20T00:36:18;6.13;;;2.30;;
13706;SDS011;6925;47.816;13.072;2022-11-20T00:38:46;5.68;;;2.17;;
13706;SDS011;6925;47.816;13.072;2022-11-20T00:41:14;4.45;;;2.25;;
13706;SDS011;6925;47.816;13.072;2022-11-20T00:43:42;5.55;;;2.78;;
13706;SDS011;6925;47.816;13.072;2022-11-20T00:46:10;4.18;;;2.00;;
13706;SDS011;6925;47.816;13.072;2022-11-20T00:48:39;6.30;;;3.22;;
13706;SDS011;6925;47.816;13.072;2022-11-20T00:51:07;7.25;;;2.85;;
13706;SDS011;6925;47.816;13.072;2022-11-20T00:53:36;4.57;;;3.05;;
13706;SDS011;6925;47.816;13.072;2022-11-20T00:56:05;4.85;;;3.15;;
13706;SDS011;6925;47.816;13.072;2022-11-20T00:58:34;5.40;;;3.03;;
13706;SDS011;6925;47.816;13.072;2022-11-20T01:01:04;4.90;;;2.55;;
13706;SDS011;6925;47.816;13.072;2022-11-20T01:03:32;5.20;;;2.70;;
13706;SDS011;6925;47.816;13.072;2022-11-20T01:06:03;3.30;;;1.83;;
13706;SDS011;6925;47.816;13.072;2022-11-20T01:08:32;4.47;;;2.10;;
13706;SDS011;6925;47.816;13.072;2022-11-20T01:11:02;3.10;;;1.40;;
13706;SDS011;6925;47.816;13.072;2022-11-20T01:13:32;3.70;;;1.90;;
13706;SDS011;6925;47.816;13.072;2022-11-20T01:16:03;4.68;;;1.90;;
13706;SDS011;6925;47.816;13.072;2022-11-20T01:18:31;3.20;;;2.05;;
13706;SDS011;6925;47.816;13.072;2022-11-20T01:21:00;3.72;;;1.52;;
13706;SDS011;6925;47.816;13.072;2022-11-20T01:23:30;4.25;;;1.65;;
13706;SDS011;6925;47.816;13.072;2022-11-20T01:25:59;3.35;;;1.67;;
13706;SDS011;6925;47.816;13.072;2022-11-20T01:28:30;4.80;;;1.92;;
13706;SDS011;6925;47.816;13.072;2022-11-20T01:30:58;4.78;;;1.95;;
13706;SDS011;6925;47.816;13.072;2022-11-20T01:33:25;4.32;;;1.67;;
13706;SDS011;6925;47.816;13.072;2022-11-20T01:38:20;3.53;;;1.70;;
13706;SDS011;6925;47.816;13.072;2022-11-20T01:40:53;2.90;;;1.50;;
13706;SDS011;6925;47.816;13.072;2022-11-20T01:43:23;3.58;;;1.60;;
13706;SDS011;6925;47.816;13.072;2022-11-20T01:46:00;4.22;;;2.30;;
13706;SDS011;6925;47.816;13.072;2022-11-20T01:48:32;2.85;;;1.50;;
13706;SDS011;6925;47.816;13.072;2022-11-20T01:51:03;3.20;;;1.90;;
13706;SDS011;6925;47.816;13.072;2022-11-20T01:53:33;4.88;;;2.03;;
13706;SDS011;6925;47.816;13.072;2022-11-20T01:56:05;4.32;;;1.90;;
13706;SDS011;6925;47.816;13.072;2022-11-20T01:58:38;2.95;;;1.60;;
13706;SDS011;6925;47.816;13.072;2022-11-20T02:01:09;6.82;;;1.48;;
13706;SDS011;6925;47.816;13.072;2022-11-20T02:03:36;3.17;;;1.30;;
13706;SDS011;6925;47.816;13.072;2022-11-20T02:06:05;4.43;;;1.75;;
13706;SDS011;6925;47.816;13.072;2022-11-20T02:08:39;2.85;;;2.25;;
13706;SDS011;6925;47.816;13.072;2022-11-20T02:11:08;3.20;;;1.85;;
13706;SDS011;6925;47.816;13.072;2022-11-20T02:13:39;3.05;;;1.33;;
13706;SDS011;6925;47.816;13.072;2022-11-20T02:16:09;3.53;;;1.52;;
13706;SDS011;6925;47.816;13.072;2022-11-20T02:18:41;4.15;;;1.27;;
13706;SDS011;6925;47.816;13.072;2022-11-20T02:21:13;4.35;;;1.48;;
13706;SDS011;6925;47.816;13.072;2022-11-20T02:24:02;11.93;;;2.05;;
13706;SDS011;6925;47.816;13.072;2022-11-20T02:26:31;2.90;;;1.10;;
13706;SDS011;6925;47.816;13.072;2022-11-20T02:29:01;3.38;;;1.45;;
13706;SDS011;6925;47.816;13.072;2022-11-20T02:31:33;2.70;;;1.35;;
13706;SDS011;6925;47.816;13.072;2022-11-20T02:34:05;2.70;;;1.30;;
13706;SDS011;6925;47.816;13.072;2022-11-20T02:36:33;2.53;;;1.40;;
13706;SDS011;6925;47.816;13.072;2022-11-20T02:39:03;3.10;;;1.20;;
13706;SDS011;6925;47.816;13.072;2022-11-20T02:41:32;3.95;;;1.45;;
13706;SDS011;6925;47.816;13.072;2022-11-20T02:44:01;2.65;;;1.40;;
13706;SDS011;6925;47.816;13.072;2022-11-20T02:46:28;4.47;;;1.20;;
13706;SDS011;6925;47.816;13.072;2022-11-20T02:51:23;3.15;;;1.33;;
13706;SDS011;6925;47.816;13.072;2022-11-20T02:56:19;4.78;;;1.20;;
13706;SDS011;6925;47.816;13.072;2022-11-20T02:58:47;2.63;;;1.10;;
13706;SDS011;6925;47.816;13.072;2022-11-20T03:01:14;3.17;;;0.93;;
13706;SDS011;6925;47.816;13.072;2022-11-20T03:03:41;4.18;;;1.65;;
13706;SDS011;6925;47.816;13.072;2022-11-20T03:06:09;4.88;;;1.63;;
13706;SDS011;6925;47.816;13.072;2022-11-20T03:08:36;2.05;;;1.10;;
13706;SDS011;6925;47.816;13.072;2022-11-20T03:11:04;2.05;;;1.00;;
13706;SDS011;6925;47.816;13.072;2022-11-20T03:13:34;2.50;;;1.20;;
13706;SDS011;6925;47.816;13.072;2022-11-20T03:18:36;4.13;;;1.40;;
13706;SDS011;6925;47.816;13.072;2022-11-20T03:21:04;2.88;;;1.00;;
13706;SDS011;6925;47.816;13.072;2022-11-20T03:23:32;2.78;;;1.08;;
13706;SDS011;6925;47.816;13.072;2022-11-20T03:26:08;2.30;;;1.10;;
13706;SDS011;6925;47.816;13.072;2022-11-20T03:28:37;3.80;;;1.67;;
13706;SDS011;6925;47.816;13.072;2022-11-20T03:31:06;2.65;;;1.05;;
13706;SDS011;6925;47.816;13.072;2022-11-20T03:33:37;3.08;;;1.33;;
13706;SDS011;6925;47.816;13.072;2022-11-20T03:36:06;3.45;;;1.33;;
13706;SDS011;6925;47.816;13.072;2022-11-20T03:38:35;4.43;;;1.60;;
13706;SDS011;6925;47.816;13.072;2022-11-20T03:41:03;3.22;;;1.98;;
13706;SDS011;6925;47.816;13.072;2022-11-20T03:43:32;4.15;;;1.42;;
13706;SDS011;6925;47.816;13.072;2022-11-20T03:46:01;3.10;;;1.52;;
13706;SDS011;6925;47.816;13.072;2022-11-20T03:48:29;4.68;;;1.55;;
13706;SDS011;6925;47.816;13.072;2022-11-20T03:53:33;3.35;;;1.35;;
13706;SDS011;6925;47.816;13.072;2022-11-20T03:56:00;2.63;;;1.33;;
13706;SDS011;6925;47.816;13.072;2022-11-20T03:58:27;3.13;;;1.67;;
13706;SDS011;6925;47.816;13.072;2022-11-20T04:00:55;3.63;;;1.60;;
13706;SDS011;6925;47.816;13.072;2022-11-20T04:03:24;3.33;;;1.30;;
13706;SDS011;6925;47.816;13.072;2022-11-20T04:05:52;5.63;;;1.55;;
13706;SDS011;6925;47.816;13.072;2022-11-20T04:08:19;3.20;;;1.75;;
13706;SDS011;6925;47.816;13.072;2022-11-20T04:10:46;3.28;;;1.70;;
13706;SDS011;6925;47.816;13.072;2022-11-20T04:13:15;3.00;;;1.33;;
13706;SDS011;6925;47.816;13.072;2022-11-20T04:15:42;4.18;;;1.58;;
13706;SDS011;6925;47.816;13.072;2022-11-20T04:18:09;4.43;;;1.70;;
13706;SDS011;6925;47.816;13.072;2022-11-20T04:20:38;3.38;;;1.55;;
13706;SDS011;6925;47.816;13.072;2022-11-20T04:23:06;5.30;;;1.55;;
13706;SDS011;6925;47.816;13.072;2022-11-20T04:25:33;5.10;;;1.50;;
13706;SDS011;6925;47.816;13.072;2022-11-20T04:28:01;4.13;;;1.60;;
13706;SDS011;6925;47.816;13.072;2022-11-20T04:30:29;3.58;;;1.92;;
13706;SDS011;6925;47.816;13.072;2022-11-20T04:32:57;2.80;;;1.45;;
13706;SDS011;6925;47.816;13.072;2022-11-20T04:35:24;3.30;;;1.90;;
13706;SDS011;6925;47.816;13.072;2022-11-20T04:37:53;3.50;;;1.45;;
13706;SDS011;6925;47.816;13.072;2022-11-20T04:40:20;4.15;;;2.00;;
13706;SDS011;6925;47.816;13.072;2022-11-20T04:42:48;3.20;;;1.63;;
13706;SDS011;6925;47.816;13.072;2022-11-20T04:45:15;3.20;;;1.70;;
13706;SDS011;6925;47.816;13.072;2022-11-20T04:47:42;4.90;;;1.70;;
13706;SDS011;6925;47.816;13.072;2022-11-20T04:50:09;3.40;;;1.80;;
13706;SDS011;6925;47.816;13.072;2022-11-20T04:52:37;3.33;;;1.60;;
13706;SDS011;6925;47.816;13.072;2022-11-20T04:55:07;4.10;;;2.05;;
13706;SDS011;6925;47.816;13.072;2022-11-20T04:57:34;3.72;;;1.92;;
13706;SDS011;6925;47.816;13.072;2022-11-20T05:00:02;3.50;;;1.70;;
13706;SDS011;6925;47.816;13.072;2022-11-20T05:02:30;3.53;;;1.80;;
13706;SDS011;6925;47.816;13.072;2022-11-20T05:04:58;3.83;;;1.73;;
13706;SDS011;6925;47.816;13.072;2022-11-20T05:07:25;7.20;;;1.80;;
13706;SDS011;6925;47.816;13.072;2022-11-20T05:09:52;3.45;;;1.90;;
13706;SDS011;6925;47.816;13.072;2022-11-20T05:12:21;4.20;;;1.77;;
13706;SDS011;6925;47.816;13.072;2022-11-20T05:14:48;3.50;;;1.70;;
13706;SDS011;6925;47.816;13.072;2022-11-20T05:17:15;3.85;;;2.10;;
13706;SDS011;6925;47.816;13.072;2022-11-20T05:19:42;5.13;;;1.80;;
13706;SDS011;6925;47.816;13.072;2022-11-20T05:22:09;4.63;;;1.63;;
13706;SDS011;6925;47.816;13.072;2022-11-20T05:24:37;5.35;;;3.08;;
13706;SDS011;6925;47.816;13.072;2022-11-20T05:27:04;3.55;;;2.08;;
13706;SDS011;6925;47.816;13.072;2022-11-20T05:29:33;4.50;;;2.38;;
13706;SDS011;6925;47.816;13.072;2022-11-20T05:32:00;3.35;;;2.10;;
13706;SDS011;6925;47.816;13.072;2022-11-20T05:34:28;3.08;;;1.80;;
13706;SDS011;6925;47.816;13.072;2022-11-20T05:36:56;3.97;;;1.98;;
13706;SDS011;6925;47.816;13.072;2022-11-20T05:39:23;3.75;;;2.00;;
13706;SDS011;6925;47.816;13.072;2022-11-20T05:41:50;3.42;;;1.40;;
13706;SDS011;6925;47.816;13.072;2022-11-20T05:44:39;3.20;;;1.60;;
13706;SDS011;6925;47.816;13.072;2022-11-20T05:47:06;3.60;;;1.80;;
13706;SDS011;6925;47.816;13.072;2022-11-20T05:49:33;4.00;;;1.75;;
13706;SDS011;6925;47.816;13.072;2022-11-20T05:52:01;3.15;;;1.38;;
13706;SDS011;6925;47.816;13.072;2022-11-20T05:54:28;3.17;;;1.63;;
13706;SDS011;6925;47.816;13.072;2022-11-20T05:56:55;3.22;;;1.67;;
13706;SDS011;6925;47.816;13.072;2022-11-20T05:59:24;2.83;;;1.45;;
13706;SDS011;6925;47.816;13.072;2022-11-20T06:01:53;3.15;;;1.80;;
13706;SDS011;6925;47.816;13.072;2022-11-20T06:04:20;2.80;;;1.50;;
13706;SDS011;6925;47.816;13.072;2022-11-20T06:07:00;3.45;;;1.50;;
13706;SDS011;6925;47.816;13.072;2022-11-20T06:09:29;4.93;;;1.80;;
13706;SDS011;6925;47.816;13.072;2022-11-20T06:11:57;2.90;;;1.65;;
13706;SDS011;6925;47.816;13.072;2022-11-20T06:14:24;4.50;;;1.80;;
13706;SDS011;6925;47.816;13.072;2022-11-20T06:16:53;3.90;;;1.75;;
13706;SDS011;6925;47.816;13.072;2022-11-20T06:19:20;3.58;;;1.58;;
13706;SDS011;6925;47.816;13.072;2022-11-20T06:21:48;4.28;;;2.00;;
13706;SDS011;6925;47.816;13.072;2022-11-20T06:24:15;3.47;;;1.60;;
13706;SDS011;6925;47.816;13.072;2022-11-20T06:26:45;3.42;;;1.67;;
13706;SDS011;6925;47.816;13.072;2022-11-20T06:29:12;2.85;;;1.33;;
13706;SDS011;6925;47.816;13.072;2022-11-20T06:31:39;3.05;;;1.40;;
13706;SDS011;6925;47.816;13.072;2022-11-20T06:34:11;2.88;;;1.52;;
13706;SDS011;6925;47.816;13.072;2022-11-20T06:36:38;3.38;;;1.33;;
13706;SDS011;6925;47.816;13.072;2022-11-20T06:39:06;3.72;;;1.38;;
13706;SDS011;6925;47.816;13.072;2022-11-20T06:41:33;4.60;;;1.60;;
13706;SDS011;6925;47.816;13.072;2022-11-20T06:44:03;3.00;;;1.38;;
13706;SDS011;6925;47.816;13.072;2022-11-20T06:46:32;2.97;;;1.27;;
13706;SDS011;6925;47.816;13.072;2022-11-20T06:48:59;2.47;;;1.30;;
13706;SDS011;6925;47.816;13.072;2022-11-20T06:51:28;5.50;;;2.10;;
13706;SDS011;6925;47.816;13.072;2022-11-20T06:53:55;2.72;;;1.33;;
13706;SDS011;6925;47.816;13.072;2022-11-20T06:56:22;2.75;;;1.42;;
13706;SDS011;6925;47.816;13.072;2022-11-20T06:58:52;3.75;;;1.38;;
13706;SDS011;6925;47.816;13.072;2022-11-20T07:01:21;3.08;;;1.60;;
13706;SDS011;6925;47.816;13.072;2022-11-20T07:03:49;4.28;;;1.55;;
13706;SDS011;6925;47.816;13.072;2022-11-20T07:06:17;3.60;;;1.70;;
13706;SDS011;6925;47.816;13.072;2022-11-20T07:08:46;3.92;;;2.00;;
13706;SDS011;6925;47.816;13.072;2022-11-20T07:11:13;3.88;;;2.17;;
13706;SDS011;6925;47.816;13.072;2022-11-20T07:13:41;3.35;;;1.85;;
13706;SDS011;6925;47.816;13.072;2022-11-20T07:16:08;4.30;;;2.00;;
13706;SDS011;6925;47.816;13.072;2022-11-20T07:18:35;4.45;;;1.58;;
13706;SDS011;6925;47.816;13.072;2022-11-20T07:21:03;3.13;;;1.95;;
13706;SDS011;6925;47.816;13.072;2022-11-20T07:23:35;3.53;;;1.55;;
13706;SDS011;6925;47.816;13.072;2022-11-20T07:26:05;4.47;;;1.75;;
13706;SDS011;6925;47.816;13.072;2022-11-20T07:28:34;3.53;;;1.70;;
13706;SDS011;6925;47.816;13.072;2022-11-20T07:33:30;2.90;;;1.30;;
13706;SDS011;6925;47.816;13.072;2022-11-20T07:38:24;2.83;;;1.40;;
13706;SDS011;6925;47.816;13.072;2022-11-20T07:40:53;5.60;;;2.72;;
13706;SDS011;6925;47.816;13.072;2022-11-20T07:43:22;3.67;;;1.90;;
13706;SDS011;6925;47.816;13.072;2022-11-20T07:45:50;3.13;;;1.30;;
13706;SDS011;6925;47.816;13.072;2022-11-20T07:48:17;3.78;;;1.55;;
13706;SDS011;6925;47.816;13.072;2022-11-20T07:50:45;4.95;;;1.38;;
13706;SDS011;6925;47.816;13.072;2022-11-20T07:53:12;3.67;;;1.35;;
13706;SDS011;6925;47.816;13.072;2022-11-20T07:55:45;3.70;;;2.15;;
13706;SDS011;6925;47.816;13.072;2022-11-20T08:04:15;4.32;;;1.38;;
13706;SDS011;6925;47.816;13.072;2022-11-20T08:30:43;4.82;;;3.40;;
13706;SDS011;6925;47.816;13.072;2022-11-20T08:33:12;5.63;;;3.40;;
13706;SDS011;6925;47.816;13.072;2022-11-20T08:35:40;9.50;;;4.10;;
13706;SDS011;6925;47.816;13.072;2022-11-20T08:38:09;7.10;;;3.20;;
13706;SDS011;6925;47.816;13.072;2022-11-20T08:40:38;5.45;;;2.80;;
13706;SDS011;6925;47.816;13.072;2022-11-20T08:43:27;6.60;;;2.60;;
13706;SDS011;6925;47.816;13.072;2022-11-20T08:48:22;3.85;;;1.83;;
13706;SDS011;6925;47.816;13.072;2022-11-20T08:57:35;4.60;;;1.77;;
13706;SDS011;6925;47.816;13.072;2022-11-20T09:00:04;4.47;;;1.70;;
13706;SDS011;6925;47.816;13.072;2022-11-20T09:02:33;7.22;;;3.80;;
13706;SDS011;6925;47.816;13.072;2022-11-20T09:05:01;5.00;;;2.60;;
13706;SDS011;6925;47.816;13.072;2022-11-20T09:09:57;7.07;;;4.22;;
13706;SDS011;6925;47.816;13.072;2022-11-20T09:12:24;5.95;;;3.08;;
13706;SDS011;6925;47.816;13.072;2022-11-20T09:14:53;4.95;;;3.10;;
13706;SDS011;6925;47.816;13.072;2022-11-20T09:17:21;5.57;;;2.97;;
13706;SDS011;6925;47.816;13.072;2022-11-20T09:22:19;5.35;;;2.70;;
13706;SDS011;6925;47.816;13.072;2022-11-20T09:24:47;6.82;;;3.78;;
13706;SDS011;6925;47.816;13.072;2022-11-20T09:29:45;5.47;;;2.72;;
13706;SDS011;6925;47.816;13.072;2022-11-20T09:34:41;5.47;;;2.92;;
13706;SDS011;6925;47.816;13.072;2022-11-20T09:37:09;5.43;;;3.58;;
13706;SDS011;6925;47.816;13.072;2022-11-20T09:39:36;5.82;;;3.05;;
13706;SDS011;6925;47.816;13.072;2022-11-20T09:45:04;6.60;;;3.08;;
13706;SDS011;6925;47.816;13.072;2022-11-20T09:47:47;4.93;;;2.30;;
13706;SDS011;6925;47.816;13.072;2022-11-20T09:50:28;5.22;;;2.58;;
13706;SDS011;6925;47.816;13.072;2022-11-20T09:53:04;3.00;;;1.77;;
13706;SDS011;6925;47.816;13.072;2022-11-20T09:55:46;4.68;;;2.10;;
13706;SDS011;6925;47.816;13.072;2022-11-20T09:58:18;4.97;;;1.83;;
13706;SDS011;6925;47.816;13.072;2022-11-20T10:00:55;5.43;;;1.70;;
13706;SDS011;6925;47.816;13.072;2022-11-20T10:03:34;3.30;;;1.83;;
13706;SDS011;6925;47.816;13.072;2022-11-20T10:06:08;1.95;;;0.85;;
13706;SDS011;6925;47.816;13.072;2022-11-20T10:08:41;2.80;;;0.73;;
13706;SDS011;6925;47.816;13.072;2022-11-20T10:11:13;1.40;;;0.60;;
13706;SDS011;6925;47.816;13.072;2022-11-20T10:13:51;1.30;;;0.80;;
13706;SDS011;6925;47.816;13.072;2022-11-20T10:16:31;1.58;;;0.70;;
13706;SDS011;6925;47.816;13.072;2022-11-20T10:19:18;1.10;;;0.70;;
13706;SDS011;6925;47.816;13.072;2022-11-20T10:22:04;1.15;;;0.55;;
13706;SDS011;6925;47.816;13.072;2022-11-20T10:24:44;1.85;;;0.90;;
13706;SDS011;6925;47.816;13.072;2022-11-20T10:27:39;2.50;;;0.75;;
13706;SDS011;6925;47.816;13.072;2022-11-20T10:30:28;1.33;;;0.80;;
13706;SDS011;6925;47.816;13.072;2022-11-20T10:32:58;2.03;;;1.00;;
13706;SDS011;6925;47.816;13.072;2022-11-20T10:35:33;4.05;;;1.95;;
13706;SDS011;6925;47.816;13.072;2022-11-20T10:38:07;5.03;;;2.30;;
13706;SDS011;6925;47.816;13.072;2022-11-20T10:40:40;6.53;;;2.47;;
13706;SDS011;6925;47.816;13.072;2022-11-20T10:43:12;2.58;;;1.25;;
13706;SDS011;6925;47.816;13.072;2022-11-20T10:45:45;3.03;;;1.30;;
13706;SDS011;6925;47.816;13.072;2022-11-20T10:48:19;2.15;;;1.08;;
13706;SDS011;6925;47.816;13.072;2022-11-20T10:53:53;3.13;;;0.93;;
13706;SDS011;6925;47.816;13.072;2022-11-20T10:56:39;2.28;;;0.90;;
13706;SDS011;6925;47.816;13.072;2022-11-20T11:02:12;1.75;;;1.00;;
13706;SDS011;6925;47.816;13.072;2022-11-20T11:04:43;3.28;;;1.40;;
13706;SDS011;6925;47.816;13.072;2022-11-20T11:07:14;3.22;;;1.10;;
13706;SDS011;6925;47.816;13.072;2022-11-20T11:09:47;2.33;;;1.00;;
13706;SDS011;6925;47.816;13.072;2022-11-20T11:12:16;2.00;;;1.00;;
13706;SDS011;6925;47.816;13.072;2022-11-20T11:14:45;4.32;;;1.30;;
13706;SDS011;6925;47.816;13.072;2022-11-20T11:17:22;3.33;;;1.15;;
13706;SDS011;6925;47.816;13.072;2022-11-20T11:20:05;1.63;;;0.90;;
13706;SDS011;6925;47.816;13.072;2022-11-20T11:22:44;2.63;;;0.93;;
13706;SDS011;6925;47.816;13.072;2022-11-20T11:25:20;2.63;;;1.30;;
13706;SDS011;6925;47.816;13.072;2022-11-20T11:27:50;2.13;;;0.90;;
13706;SDS011;6925;47.816;13.072;2022-11-20T11:30:18;1.90;;;0.70;;
13706;SDS011;6925;47.816;13.072;2022-11-20T11:32:47;2.40;;;0.85;;
13706;SDS011;6925;47.816;13.072;2022-11-20T11:35:21;3.67;;;1.08;;
13706;SDS011;6925;47.816;13.072;2022-11-20T11:37:51;1.48;;;0.75;;
13706;SDS011;6925;47.816;13.072;2022-11-20T11:40:21;1.63;;;0.90;;
13706;SDS011;6925;47.816;13.072;2022-11-20T11:42:56;2.35;;;0.90;;
13706;SDS011;6925;47.816;13.072;2022-11-20T11:45:26;2.65;;;0.80;;
13706;SDS011;6925;47.816;13.072;2022-11-20T11:47:53;1.38;;;0.70;;
13706;SDS011;6925;47.816;13.072;2022-11-20T11:50:23;1.70;;;0.73;;
13706;SDS011;6925;47.816;13.072;2022-11-20T11:52:59;1.35;;;0.60;;
13706;SDS011;6925;47.816;13.072;2022-11-20T11:55:35;3.20;;;0.90;;
13706;SDS011;6925;47.816;13.072;2022-11-20T11:58:15;2.15;;;0.80;;
13706;SDS011;6925;47.816;13.072;2022-11-20T12:00:52;2.50;;;0.90;;
13706;SDS011;6925;47.816;13.072;2022-11-20T12:03:24;1.27;;;0.80;;
13706;SDS011;6925;47.816;13.072;2022-11-20T12:05:56;2.92;;;1.20;;
13706;SDS011;6925;47.816;13.072;2022-11-20T12:08:29;3.50;;;1.70;;
13706;SDS011;6925;47.816;13.072;2022-11-20T12:11:03;4.97;;;0.70;;
13706;SDS011;6925;47.816;13.072;2022-11-20T12:16:20;3.60;;;1.08;;
13706;SDS011;6925;47.816;13.072;2022-11-20T12:18:48;5.45;;;2.15;;
13706;SDS011;6925;47.816;13.072;2022-11-20T12:21:20;3.05;;;1.38;;
13706;SDS011;6925;47.816;13.072;2022-11-20T12:24:02;9.27;;;2.88;;
13706;SDS011;6925;47.816;13.072;2022-11-20T12:26:46;11.10;;;3.92;;
13706;SDS011;6925;47.816;13.072;2022-11-20T12:29:23;2.55;;;1.17;;
13706;SDS011;6925;47.816;13.072;2022-11-20T12:32:06;3.17;;;1.13;;
13706;SDS011;6925;47.816;13.072;2022-11-20T12:34:56;3.33;;;1.23;;
13706;SDS011;6925;47.816;13.072;2022-11-20T12:37:34;2.25;;;0.85;;
13706;SDS011;6925;47.816;13.072;2022-11-20T12:40:17;6.65;;;3.90;;
13706;SDS011;6925;47.816;13.072;2022-11-20T12:43:02;6.72;;;3.63;;
13706;SDS011;6925;47.816;13.072;2022-11-20T12:46:10;1.67;;;0.80;;
13706;SDS011;6925;47.816;13.072;2022-11-20T12:51:41;1.55;;;0.70;;
13706;SDS011;6925;47.816;13.072;2022-11-20T12:57:24;2.28;;;0.80;;
13706;SDS011;6925;47.816;13.072;2022-11-20T13:00:10;1.52;;;0.77;;
13706;SDS011;6925;47.816;13.072;2022-11-20T13:02:45;1.95;;;0.60;;
13706;SDS011;6925;47.816;13.072;2022-11-20T13:05:35;1.50;;;0.70;;
13706;SDS011;6925;47.816;13.072;2022-11-20T20:56:51;3.67;;;1.50;;
13706;SDS011;6925;47.816;13.072;2022-11-20T20:59:18;3.53;;;1.60;;
13706;SDS011;6925;47.816;13.072;2022-11-20T21:01:45;3.15;;;1.40;;
13706;SDS011;6925;47.816;13.072;2022-11-20T21:04:12;2.85;;;1.30;;
13706;SDS011;6925;47.816;13.072;2022-11-20T21:06:40;4.95;;;2.00;;
13706;SDS011;6925;47.816;13.072;2022-11-20T21:09:07;3.75;;;1.63;;
13706;SDS011;6925;47.816;13.072;2022-11-20T21:11:34;3.33;;;1.42;;
13706;SDS011;6925;47.816;13.072;2022-11-20T21:14:05;3.97;;;1.83;;
13706;SDS011;6925;47.816;13.072;2022-11-20T21:16:32;3.28;;;1.60;;
13706;SDS011;6925;47.816;13.072;2022-11-20T21:19:05;3.70;;;1.75;;
13706;SDS011;6925;47.816;13.072;2022-11-20T21:21:35;5.68;;;2.53;;
13706;SDS011;6925;47.816;13.072;2022-11-20T21:24:20;3.45;;;1.70;;
13706;SDS011;6925;47.816;13.072;2022-11-20T21:29:17;4.20;;;2.40;;
13706;SDS011;6925;47.816;13.072;2022-11-20T21:31:45;4.88;;;2.22;;
13706;SDS011;6925;47.816;13.072;2022-11-20T21:34:13;5.13;;;2.30;;
13706;SDS011;6925;47.816;13.072;2022-11-20T21:36:42;5.68;;;2.30;;
13706;SDS011;6925;47.816;13.072;2022-11-20T21:39:09;4.07;;;1.70;;
13706;SDS011;6925;47.816;13.072;2022-11-20T21:41:38;5.93;;;2.20;;
13706;SDS011;6925;47.816;13.072;2022-11-20T21:44:08;3.05;;;1.42;;
13706;SDS011;6925;47.816;13.072;2022-11-20T21:47:12;4.60;;;1.90;;
13706;SDS011;6925;47.816;13.072;2022-11-20T21:49:40;3.78;;;1.85;;
13706;SDS011;6925;47.816;13.072;2022-11-20T21:52:07;5.95;;;2.90;;
13706;SDS011;6925;47.816;13.072;2022-11-20T21:54:37;6.32;;;2.75;;
13706;SDS011;6925;47.816;13.072;2022-11-20T21:57:04;4.75;;;1.70;;
13706;SDS011;6925;47.816;13.072;2022-11-20T21:59:33;3.88;;;2.22;;
13706;SDS011;6925;47.816;13.072;2022-11-20T22:02:04;4.72;;;1.88;;
13706;SDS011;6925;47.816;13.072;2022-11-20T22:07:24;3.75;;;1.55;;
13706;SDS011;6925;47.816;13.072;2022-11-20T22:09:52;4.25;;;2.22;;
13706;SDS011;6925;47.816;13.072;2022-11-20T22:12:20;4.32;;;2.08;;
13706;SDS011;6925;47.816;13.072;2022-11-20T22:14:47;8.07;;;2.60;;
13706;SDS011;6925;47.816;13.072;2022-11-20T22:17:14;5.63;;;2.80;;
13706;SDS011;6925;47.816;13.072;2022-11-20T22:20:07;3.92;;;1.95;;
13706;SDS011;6925;47.816;13.072;2022-11-20T22:22:35;5.57;;;2.38;;
13706;SDS011;6925;47.816;13.072;2022-11-20T22:25:02;5.18;;;2.38;;
13706;SDS011;6925;47.816;13.072;2022-11-20T22:27:30;6.40;;;2.53;;
13706;SDS011;6925;47.816;13.072;2022-11-20T22:29:57;5.35;;;2.03;;
13706;SDS011;6925;47.816;13.072;2022-11-20T22:32:25;7.78;;;2.33;;
13706;SDS011;6925;47.816;13.072;2022-11-20T22:34:52;3.60;;;1.92;;
13706;SDS011;6925;47.816;13.072;2022-11-20T22:37:20;3.92;;;1.80;;
13706;SDS011;6925;47.816;13.072;2022-11-20T22:39:48;3.53;;;1.63;;
13706;SDS011;6925;47.816;13.072;2022-11-20T22:42:15;4.03;;;1.63;;
13706;SDS011;6925;47.816;13.072;2022-11-20T22:44:42;3.17;;;1.50;;
13706;SDS011;6925;47.816;13.072;2022-11-20T22:47:09;3.53;;;1.70;;
13706;SDS011;6925;47.816;13.072;2022-11-20T22:49:37;2.08;;;1.10;;
13706;SDS011;6925;47.816;13.072;2022-11-20T22:52:04;2.65;;;1.20;;
13706;SDS011;6925;47.816;13.072;2022-11-20T22:54:32;2.90;;;1.55;;
13706;SDS011;6925;47.816;13.072;2022-11-20T22:57:00;2.40;;;1.30;;
13706;SDS011;6925;47.816;13.072;2022-11-20T22:59:27;2.45;;;1.10;;
13706;SDS011;6925;47.816;13.072;2022-11-20T23:01:54;3.70;;;1.38;;
13706;SDS011;6925;47.816;13.072;2022-11-20T23:04:21;3.08;;;1.40;;
13706;SDS011;6925;47.816;13.072;2022-11-20T23:06:49;3.28;;;1.13;;
13706;SDS011;6925;47.816;13.072;2022-11-20T23:09:16;3.10;;;1.35;;
13706;SDS011;6925;47.816;13.072;2022-11-20T23:11:45;3.40;;;1.80;;
13706;SDS011;6925;47.816;13.072;2022-11-20T23:14:13;3.50;;;1.70;;
13706;SDS011;6925;47.816;13.072;2022-11-20T23:16:41;2.85;;;1.40;;
13706;SDS011;6925;47.816;13.072;2022-11-20T23:19:11;3.72;;;1.92;;
13706;SDS011;6925;47.816;13.072;2022-11-20T23:21:40;4.60;;;1.80;;
13706;SDS011;6925;47.816;13.072;2022-11-20T23:24:08;3.97;;;1.98;;
13706;SDS011;6925;47.816;13.072;2022-11-20T23:26:36;4.93;;;1.95;;
13706;SDS011;6925;47.816;13.072;2022-11-20T23:29:05;4.10;;;1.70;;
13706;SDS011;6925;47.816;13.072;2022-11-20T23:31:33;3.15;;;1.45;;
13706;SDS011;6925;47.816;13.072;2022-11-20T23:34:01;2.90;;;1.50;;
13706;SDS011;6925;47.816;13.072;2022-11-20T23:36:31;5.15;;;2.28;;
13706;SDS011;6925;47.816;13.072;2022-11-20T23:38:58;3.70;;;1.67;;
13706;SDS011;6925;47.816;13.072;2022-11-20T23:41:27;3.45;;;1.55;;
13706;SDS011;6925;47.816;13.072;2022-11-20T23:43:54;3.40;;;1.67;;
13706;SDS011;6925;47.816;13.072;2022-11-20T23:46:23;2.95;;;1.27;;
13706;SDS011;6925;47.816;13.072;2022-11-20T23:48:50;3.10;;;1.40;;
13706;SDS011;6925;47.816;13.072;2022-11-20T23:51:19;3.50;;;1.33;;
13706;SDS011;6925;47.816;13.072;2022-11-20T23:53:46;2.80;;;1.15;;
13706;SDS011;6925;47.816;13.072;2022-11-20T23:56:16;2.42;;;1.15;;
13706;SDS011;6925;47.816;13.072;2022-11-20T23:58:45;3.42;;;1.73;;
